createdAt,value
2022-11-04T00:02:03.836Z,1.10
2022-11-04T00:04:31.142Z,1.10
2022-11-04T00:06:58.501Z,1.70
2022-11-04T00:09:28.133Z,1.50
2022-11-04T00:12:13.684Z,1.60
2022-11-04T00:14:40.426Z,2.13
2022-11-04T00:17:20.255Z,2.13
2022-11-04T00:20:06.918Z,1.70
2022-11-04T00:22:52.641Z,2.60
2022-11-04T00:25:38.172Z,2.03
2022-11-04T00:28:35.128Z,4.10
2022-11-04T00:31:23.341Z,1.47
2022-11-04T00:33:52.015Z,1.80
2022-11-04T00:36:18.962Z,2.10
2022-11-04T00:38:46.586Z,2.57
2022-11-04T00:41:28.953Z,3.67
2022-11-04T00:44:01.844Z,3.50
2022-11-04T00:46:30.429Z,1.47
2022-11-04T00:48:57.624Z,1.83
2022-11-04T00:51:24.976Z,2.97
2022-11-04T00:53:51.990Z,2.43
2022-11-04T00:56:18.889Z,4.80
2022-11-04T00:58:45.637Z,2.10
2022-11-04T01:01:17.988Z,2.67
2022-11-04T01:03:50.343Z,1.60
2022-11-04T01:06:18.137Z,6.20
2022-11-04T01:08:45.540Z,2.83
2022-11-04T01:11:13.203Z,4.70
2022-11-04T01:13:40.303Z,2.17
2022-11-04T01:16:09.666Z,3.17
2022-11-04T01:18:36.656Z,3.87
2022-11-04T01:21:07.792Z,2.63
2022-11-04T01:23:35.465Z,2.37
2022-11-04T01:26:06.296Z,2.50
2022-11-04T01:28:33.176Z,1.50
2022-11-04T01:31:00.288Z,3.17
2022-11-04T01:33:27.025Z,6.70
2022-11-04T01:35:53.702Z,1.97
2022-11-04T01:38:20.415Z,2.53
2022-11-04T01:40:47.088Z,2.43
2022-11-04T01:43:19.324Z,4.60
2022-11-04T01:45:53.004Z,4.17
2022-11-04T01:48:25.886Z,2.77
2022-11-04T01:50:54.752Z,3.50
2022-11-04T01:53:26.740Z,5.20
2022-11-04T01:55:58.602Z,3.80
2022-11-04T01:58:30.504Z,4.97
2022-11-04T02:00:57.234Z,5.20
2022-11-04T02:03:31.413Z,6.03
2022-11-04T02:05:59.385Z,4.73
2022-11-04T02:08:26.481Z,4.03
2022-11-04T02:11:00.644Z,6.77
2022-11-04T02:13:29.959Z,3.33
2022-11-04T02:16:06.260Z,3.87
2022-11-04T02:18:48.006Z,3.67
2022-11-04T02:21:48.109Z,4.53
2022-11-04T02:24:56.232Z,7.30
2022-11-04T02:27:38.042Z,5.30
2022-11-04T02:30:11.060Z,5.13
2022-11-04T02:32:58.565Z,9.20
2022-11-04T02:35:35.849Z,6.87
2022-11-04T02:38:30.215Z,5.43
2022-11-04T02:41:07.399Z,5.57
2022-11-04T02:43:57.281Z,6.67
2022-11-04T02:46:26.895Z,9.40
2022-11-04T02:49:00.406Z,3.60
2022-11-04T02:51:29.376Z,4.00
2022-11-04T02:54:14.452Z,3.43
2022-11-04T02:56:49.907Z,5.90
2022-11-04T02:59:38.180Z,5.27
2022-11-04T03:02:08.275Z,5.50
2022-11-04T03:04:41.645Z,7.93
2022-11-04T03:09:51.927Z,6.57
2022-11-04T03:12:22.348Z,5.30
2022-11-04T03:14:54.455Z,5.17
2022-11-04T03:17:30.379Z,2.17
2022-11-04T03:19:59.881Z,3.50
2022-11-04T03:22:29.888Z,4.97
2022-11-04T03:24:57.762Z,2.63
2022-11-04T03:27:31.816Z,3.77
2022-11-04T03:30:11.629Z,3.47
2022-11-04T03:33:00.889Z,5.60
2022-11-04T03:35:28.950Z,9.40
2022-11-04T03:37:56.729Z,7.53
2022-11-04T03:40:24.011Z,7.30
2022-11-04T03:43:00.843Z,6.23
2022-11-04T03:45:27.804Z,4.93
2022-11-04T03:47:56.694Z,9.87
2022-11-04T03:50:29.866Z,5.37
2022-11-04T03:52:58.292Z,6.43
2022-11-04T03:55:37.009Z,7.23
2022-11-04T03:58:10.935Z,10.27
2022-11-04T04:00:56.733Z,5.67
2022-11-04T04:03:42.492Z,4.47
2022-11-04T04:06:32.677Z,6.13
2022-11-04T04:09:12.586Z,5.23
2022-11-04T04:11:55.302Z,5.03
2022-11-04T04:14:40.064Z,7.73
2022-11-04T04:17:12.443Z,7.57
2022-11-04T04:19:42.041Z,4.63
2022-11-04T04:22:23.575Z,7.07
2022-11-04T04:25:12.338Z,3.93
2022-11-04T04:27:40.259Z,3.97
2022-11-04T04:30:09.872Z,3.37
2022-11-04T04:32:45.811Z,3.80
2022-11-04T04:35:31.463Z,3.73
2022-11-04T04:38:20.967Z,6.90
2022-11-04T04:41:12.169Z,3.77
2022-11-04T04:44:01.039Z,4.57
2022-11-04T04:46:32.084Z,4.23
2022-11-04T04:49:09.088Z,5.13
2022-11-04T04:51:39.796Z,4.17
2022-11-04T04:54:06.860Z,3.67
2022-11-04T04:56:33.576Z,3.97
2022-11-04T04:59:00.422Z,3.77
2022-11-04T05:01:27.151Z,3.50
2022-11-04T05:03:54.012Z,3.53
2022-11-04T05:06:21.046Z,5.47
2022-11-04T05:08:47.761Z,3.13
2022-11-04T05:11:14.427Z,4.43
2022-11-04T05:13:41.164Z,4.63
2022-11-04T05:16:11.561Z,4.80
2022-11-04T05:18:38.270Z,2.97
2022-11-04T05:21:10.912Z,2.67
2022-11-04T05:23:37.751Z,3.37
2022-11-04T05:26:04.645Z,3.13
2022-11-04T05:28:31.820Z,2.77
2022-11-04T05:31:03.915Z,5.80
2022-11-04T05:33:30.753Z,2.63
2022-11-04T05:36:06.919Z,2.97
2022-11-04T05:38:33.727Z,10.07
2022-11-04T05:41:00.445Z,4.50
2022-11-04T05:43:27.683Z,2.70
2022-11-04T05:45:54.585Z,7.60
2022-11-04T05:48:21.460Z,4.20
2022-11-04T05:50:48.165Z,3.90
2022-11-04T05:53:14.896Z,4.80
2022-11-04T05:55:41.573Z,5.10
2022-11-04T05:58:08.672Z,4.73
2022-11-04T06:00:35.565Z,3.40
2022-11-04T06:03:02.395Z,4.87
2022-11-04T06:05:29.967Z,4.20
2022-11-04T06:07:56.922Z,5.67
2022-11-04T06:10:24.120Z,5.37
2022-11-04T06:12:51.059Z,8.73
2022-11-04T06:15:17.808Z,2.93
2022-11-04T06:17:44.580Z,2.40
2022-11-04T06:20:11.332Z,5.57
2022-11-04T06:22:38.250Z,5.10
2022-11-04T06:25:05.230Z,9.60
2022-11-04T06:27:31.922Z,3.20
2022-11-04T06:29:58.595Z,5.67
2022-11-04T06:32:25.255Z,3.73
2022-11-04T06:34:51.872Z,2.27
2022-11-04T06:37:18.983Z,5.17
2022-11-04T06:39:45.983Z,3.63
2022-11-04T06:42:12.699Z,3.37
2022-11-04T06:44:39.481Z,6.20
2022-11-04T06:47:06.164Z,4.30
2022-11-04T06:49:32.854Z,5.23
2022-11-04T06:52:01.043Z,6.37
2022-11-04T06:54:27.750Z,6.37
2022-11-04T06:56:54.436Z,5.17
2022-11-04T06:59:21.401Z,8.00
2022-11-04T07:01:50.599Z,3.60
2022-11-04T07:04:17.813Z,3.67
2022-11-04T07:06:45.052Z,3.97
2022-11-04T07:09:15.904Z,10.53
2022-11-04T07:11:44.194Z,5.97
2022-11-04T07:14:11.521Z,4.37
2022-11-04T07:16:38.441Z,3.43
2022-11-04T07:19:05.917Z,5.23
2022-11-04T07:21:32.862Z,6.70
2022-11-04T07:24:01.066Z,7.13
2022-11-04T07:26:27.730Z,4.40
2022-11-04T07:28:54.450Z,7.03
2022-11-04T07:31:22.157Z,6.67
2022-11-04T07:33:51.135Z,8.57
2022-11-04T07:36:18.503Z,10.43
2022-11-04T07:38:45.393Z,4.67
2022-11-04T07:41:12.826Z,6.90
2022-11-04T07:43:39.622Z,4.93
2022-11-04T07:46:09.614Z,3.40
2022-11-04T07:48:37.283Z,11.30
2022-11-04T07:51:06.193Z,6.67
2022-11-04T07:53:33.181Z,5.13
2022-11-04T07:56:04.201Z,3.67
2022-11-04T07:58:30.835Z,3.07
2022-11-04T08:01:02.832Z,6.47
2022-11-04T08:03:29.650Z,6.80
2022-11-04T08:05:58.088Z,3.43
2022-11-04T08:08:25.394Z,6.63
2022-11-04T08:10:57.084Z,3.27
2022-11-04T08:13:27.060Z,4.03
2022-11-04T08:15:53.758Z,5.00
2022-11-04T08:18:21.504Z,5.50
2022-11-04T08:20:53.637Z,7.00
2022-11-04T08:23:20.668Z,6.73
2022-11-04T08:25:47.309Z,7.33
2022-11-04T08:28:17.491Z,5.47
2022-11-04T08:30:58.142Z,4.30
2022-11-04T08:33:26.576Z,5.77
2022-11-04T08:35:54.716Z,5.57
2022-11-04T08:38:21.465Z,6.23
2022-11-04T08:40:48.452Z,8.97
2022-11-04T08:43:15.366Z,10.43
2022-11-04T08:45:45.499Z,5.40
2022-11-04T08:48:13.453Z,5.13
2022-11-04T08:50:40.401Z,4.07
2022-11-04T08:53:07.492Z,4.10
2022-11-04T08:55:34.995Z,4.67
2022-11-04T08:58:02.339Z,8.50
2022-11-04T09:00:29.015Z,2.73
2022-11-04T09:02:55.740Z,6.67
2022-11-04T09:05:22.789Z,6.83
2022-11-04T09:07:49.498Z,4.13
2022-11-04T09:10:17.185Z,4.40
2022-11-04T09:12:44.843Z,9.17
2022-11-04T09:15:12.723Z,4.80
2022-11-04T09:17:40.135Z,3.40
2022-11-04T09:20:07.726Z,4.00
2022-11-04T09:22:34.426Z,7.43
2022-11-04T09:25:01.369Z,5.50
2022-11-04T09:27:28.015Z,5.60
2022-11-04T09:29:54.650Z,5.60
2022-11-04T09:32:21.483Z,5.57
2022-11-04T09:34:48.159Z,6.70
2022-11-04T09:37:15.980Z,7.57
2022-11-04T09:39:42.650Z,5.13
2022-11-04T09:42:14.844Z,6.50
2022-11-04T09:47:49.374Z,8.03
2022-11-04T09:50:31.266Z,8.10
2022-11-04T09:53:15.482Z,6.10
2022-11-04T09:55:50.193Z,6.87
2022-11-04T09:58:17.183Z,4.73
2022-11-04T10:00:53.021Z,6.33
2022-11-04T10:03:48.054Z,8.80
2022-11-04T10:06:17.419Z,6.33
2022-11-04T10:09:14.428Z,3.83
2022-11-04T10:11:46.531Z,3.97
2022-11-04T10:14:23.749Z,8.93
2022-11-04T10:17:07.663Z,5.67
2022-11-04T10:20:04.726Z,5.73
2022-11-04T10:22:55.039Z,6.90
2022-11-04T10:25:25.178Z,5.87
2022-11-04T10:27:52.912Z,6.43
2022-11-04T10:30:22.135Z,7.67
2022-11-04T10:33:27.760Z,5.50
2022-11-04T10:36:01.818Z,3.40
2022-11-04T10:38:48.590Z,4.47
2022-11-04T10:41:23.524Z,4.57
2022-11-04T10:44:21.116Z,4.17
2022-11-04T10:47:11.781Z,4.70
2022-11-04T10:50:26.316Z,3.77
2022-11-04T10:52:41.808Z,5.83
2022-11-04T10:55:39.536Z,4.07
2022-11-04T10:58:16.349Z,4.03
2022-11-04T11:00:43.100Z,3.87
2022-11-04T11:03:25.615Z,3.10
2022-11-04T11:05:53.596Z,1.73
2022-11-04T11:08:33.297Z,5.70
2022-11-04T11:11:00.156Z,6.70
2022-11-04T11:13:34.049Z,1.77
2022-11-04T11:16:18.700Z,7.07
2022-11-04T11:18:45.374Z,4.50
2022-11-04T11:21:21.090Z,5.20
2022-11-04T11:23:49.098Z,10.33
2022-11-04T11:26:36.099Z,8.00
2022-11-04T11:29:09.931Z,3.50
2022-11-04T11:31:39.283Z,6.40
2022-11-04T11:34:28.202Z,4.87
2022-11-04T11:36:56.407Z,5.10
2022-11-04T11:39:31.540Z,5.40
2022-11-04T11:42:17.479Z,6.73
2022-11-04T11:44:52.709Z,5.93
2022-11-04T11:47:21.193Z,5.00
2022-11-04T11:50:14.812Z,5.80
2022-11-04T11:52:43.131Z,3.93
2022-11-04T11:55:25.938Z,5.03
2022-11-04T12:01:23.849Z,4.53
2022-11-04T12:10:48.634Z,3.17
2022-11-04T12:13:28.210Z,3.30
2022-11-04T12:16:01.699Z,4.30
2022-11-04T12:19:06.015Z,13.70
2022-11-04T12:21:38.480Z,4.20
2022-11-04T12:24:47.339Z,7.80
2022-11-04T12:27:35.405Z,4.47
2022-11-04T12:30:05.011Z,5.03
2022-11-04T12:33:26.991Z,2.80
2022-11-04T12:36:08.791Z,4.43
2022-11-04T12:38:46.227Z,3.30
2022-11-04T12:41:52.861Z,4.70
2022-11-04T12:44:13.397Z,5.37
2022-11-04T12:47:04.512Z,6.53
2022-11-04T12:50:03.512Z,1.97
2022-11-04T12:52:48.676Z,2.53
2022-11-04T12:55:27.400Z,9.57
2022-11-04T12:58:17.438Z,5.13
2022-11-04T13:00:48.264Z,10.83
2022-11-04T13:03:31.541Z,15.97
2022-11-04T13:06:05.759Z,4.43
2022-11-04T13:08:34.767Z,1.70
2022-11-04T13:11:22.541Z,3.50
2022-11-04T13:14:04.336Z,5.17
2022-11-04T13:16:37.296Z,3.90
2022-11-04T13:19:08.333Z,7.40
2022-11-04T13:21:38.116Z,3.77
2022-11-04T13:24:21.387Z,2.40
2022-11-04T13:26:48.128Z,3.57
2022-11-04T13:29:21.248Z,7.37
2022-11-04T13:32:01.739Z,2.73
2022-11-04T13:34:34.218Z,5.27
2022-11-04T13:37:30.151Z,6.00
2022-11-04T13:40:04.129Z,4.80
2022-11-04T13:42:52.896Z,6.67
2022-11-04T13:45:20.731Z,4.57
2022-11-04T13:47:54.976Z,3.93
2022-11-04T13:50:56.071Z,5.87
2022-11-04T13:53:58.280Z,5.73
2022-11-04T13:56:34.585Z,2.90
2022-11-04T13:59:22.039Z,3.37
2022-11-04T14:01:49.348Z,4.30
2022-11-04T14:04:32.032Z,3.30
2022-11-04T14:07:03.718Z,3.77
2022-11-04T14:09:33.856Z,3.63
2022-11-04T14:12:18.600Z,4.63
2022-11-04T14:14:52.683Z,5.00
2022-11-04T14:17:34.474Z,1.53
2022-11-04T14:20:19.838Z,3.97
2022-11-04T14:22:51.275Z,4.63
2022-11-04T14:25:25.673Z,5.37
2022-11-04T14:27:55.515Z,8.63
2022-11-04T14:30:43.963Z,7.37
2022-11-04T14:33:23.056Z,2.30
2022-11-04T14:35:53.086Z,7.70
2022-11-04T14:38:40.692Z,12.07
2022-11-04T14:41:22.569Z,8.33
2022-11-04T14:43:50.016Z,2.43
2022-11-04T14:46:23.322Z,32.27
2022-11-04T14:48:54.219Z,6.10
2022-11-04T14:51:32.426Z,20.67
2022-11-04T14:54:06.400Z,8.27
2022-11-04T14:56:33.221Z,3.20
2022-11-04T14:59:01.434Z,3.70
2022-11-04T15:01:34.658Z,5.60
2022-11-04T15:04:32.777Z,5.73
2022-11-04T15:07:01.069Z,5.07
2022-11-04T15:09:35.187Z,4.33
2022-11-04T15:12:33.731Z,2.73
2022-11-04T15:15:00.732Z,13.37
2022-11-04T15:17:31.168Z,10.30
2022-11-04T15:20:01.452Z,4.57
2022-11-04T15:22:30.360Z,5.53
2022-11-04T15:25:01.143Z,4.17
2022-11-04T15:27:29.745Z,14.87
2022-11-04T15:30:02.573Z,24.97
2022-11-04T15:32:29.472Z,12.43
2022-11-04T15:34:56.912Z,6.53
2022-11-04T15:37:25.411Z,7.07
2022-11-04T15:39:55.235Z,6.47
2022-11-04T15:42:39.668Z,9.53
2022-11-04T15:45:27.602Z,12.63
2022-11-04T15:48:26.867Z,16.47
2022-11-04T15:51:03.741Z,6.97
2022-11-04T15:53:33.152Z,8.50
2022-11-04T15:56:00.774Z,6.90
2022-11-04T15:58:27.895Z,5.77
2022-11-04T16:00:56.254Z,18.57
2022-11-04T16:03:24.263Z,8.17
2022-11-04T16:06:05.913Z,11.27
2022-11-04T16:08:33.834Z,17.83
2022-11-04T16:11:17.422Z,7.43
2022-11-04T16:13:45.454Z,8.80
2022-11-04T16:16:26.507Z,5.63
2022-11-04T16:19:00.037Z,4.50
2022-11-04T16:21:33.401Z,10.37
2022-11-04T16:24:15.395Z,28.03
2022-11-04T16:26:44.561Z,5.70
2022-11-04T16:29:21.904Z,18.70
2022-11-04T16:32:25.334Z,9.57
2022-11-04T16:34:56.887Z,7.63
2022-11-04T16:37:25.535Z,7.73
2022-11-04T16:39:52.211Z,6.10
2022-11-04T16:42:19.206Z,6.90
2022-11-04T16:44:51.847Z,3.83
2022-11-04T16:47:19.352Z,6.07
2022-11-04T16:49:46.834Z,3.53
2022-11-04T16:52:18.208Z,8.57
2022-11-04T16:54:48.110Z,10.23
2022-11-04T16:57:15.665Z,10.83
2022-11-04T16:59:42.511Z,5.87
2022-11-04T17:02:31.702Z,6.93
2022-11-04T17:04:58.918Z,8.50
2022-11-04T17:07:40.504Z,11.90
2022-11-04T17:10:17.127Z,8.10
2022-11-04T17:12:43.998Z,9.43
2022-11-04T17:15:11.695Z,10.73
2022-11-04T17:17:38.387Z,10.73
2022-11-04T17:20:06.511Z,7.97
2022-11-04T17:22:34.685Z,11.17
2022-11-04T17:25:01.444Z,8.77
2022-11-04T17:27:28.360Z,9.17
2022-11-04T17:29:55.149Z,8.93
2022-11-04T17:32:21.876Z,11.13
2022-11-04T17:34:48.618Z,12.90
2022-11-04T17:37:15.314Z,7.07
2022-11-04T17:39:42.063Z,7.37
2022-11-04T17:42:27.024Z,9.73
2022-11-04T17:44:53.786Z,8.77
2022-11-04T17:47:20.535Z,8.53
2022-11-04T17:49:47.216Z,11.67
2022-11-04T17:52:13.879Z,8.60
2022-11-04T17:54:40.517Z,6.13
2022-11-04T17:57:07.300Z,6.37
2022-11-04T17:59:36.937Z,6.70
2022-11-04T18:02:04.170Z,4.27
2022-11-04T18:04:30.978Z,5.80
2022-11-04T18:07:02.535Z,8.40
2022-11-04T18:09:31.235Z,6.90
2022-11-04T18:12:16.793Z,10.40
2022-11-04T18:14:43.595Z,5.87
2022-11-04T18:17:10.366Z,8.87
2022-11-04T18:19:37.040Z,9.83
2022-11-04T18:22:03.773Z,12.30
2022-11-04T18:24:30.499Z,10.90
2022-11-04T18:26:59.102Z,7.37
2022-11-04T18:29:25.865Z,6.70
2022-11-04T18:31:52.890Z,10.00
2022-11-04T18:34:19.810Z,6.07
2022-11-04T18:36:47.962Z,5.37
2022-11-04T18:39:16.630Z,8.73
2022-11-04T18:41:43.350Z,13.57
2022-11-04T18:44:15.804Z,11.93
2022-11-04T18:46:43.348Z,16.17
2022-11-04T18:49:10.733Z,13.27
2022-11-04T18:51:37.498Z,13.53
2022-11-04T18:54:05.972Z,19.77
2022-11-04T18:56:33.251Z,14.83
2022-11-04T18:59:00.099Z,14.60
2022-11-04T19:01:34.075Z,21.80
2022-11-04T19:04:01.291Z,22.70
2022-11-04T19:06:30.974Z,17.47
2022-11-04T19:09:05.010Z,20.57
2022-11-04T19:11:41.126Z,23.47
2022-11-04T19:14:10.291Z,15.23
2022-11-04T19:16:39.203Z,19.17
2022-11-04T19:19:07.815Z,19.33
2022-11-04T19:21:35.203Z,21.20
2022-11-04T19:24:02.546Z,16.93
2022-11-04T19:26:31.674Z,22.50
2022-11-04T19:28:59.995Z,26.27
2022-11-04T19:31:29.279Z,24.33
2022-11-04T19:33:59.117Z,23.97
2022-11-04T19:36:26.095Z,19.70
2022-11-04T19:38:56.609Z,19.27
2022-11-04T19:41:42.216Z,16.83
2022-11-04T19:44:12.180Z,18.10
2022-11-04T19:46:39.168Z,21.63
2022-11-04T19:49:08.524Z,16.37
2022-11-04T19:51:36.084Z,21.27
2022-11-04T19:54:03.302Z,17.93
2022-11-04T19:56:31.264Z,17.73
2022-11-04T19:59:01.733Z,17.27
2022-11-04T20:01:33.880Z,20.90
2022-11-04T20:04:02.523Z,17.70
2022-11-04T20:06:30.734Z,16.80
2022-11-04T20:08:57.559Z,18.80
2022-11-04T20:11:24.221Z,14.83
2022-11-04T20:13:51.804Z,15.73
2022-11-04T20:16:18.475Z,18.00
2022-11-04T20:18:47.630Z,17.47
2022-11-04T20:21:15.266Z,17.57
2022-11-04T20:23:42.303Z,18.80
2022-11-04T20:26:22.772Z,17.57
2022-11-04T20:28:50.434Z,21.27
2022-11-04T20:31:19.360Z,19.43
2022-11-04T20:33:47.762Z,20.73
2022-11-04T20:36:17.154Z,20.77
2022-11-04T20:38:44.160Z,17.17
2022-11-04T20:41:18.351Z,16.57
2022-11-04T20:43:46.742Z,18.00
2022-11-04T20:46:19.134Z,18.57
2022-11-04T20:48:47.532Z,19.27
2022-11-04T20:51:20.295Z,18.50
2022-11-04T20:53:47.752Z,18.23
2022-11-04T20:56:17.831Z,15.30
2022-11-04T20:58:47.823Z,17.80
2022-11-04T21:01:26.053Z,14.07
2022-11-04T21:03:59.198Z,8.73
2022-11-04T21:06:25.919Z,11.37
2022-11-04T21:08:52.910Z,9.20
2022-11-04T21:11:19.781Z,8.17
2022-11-04T21:13:46.406Z,11.40
2022-11-04T21:16:14.118Z,9.00
2022-11-04T21:18:41.173Z,12.70
2022-11-04T21:21:09.828Z,11.27
2022-11-04T21:23:36.729Z,9.47
2022-11-04T21:26:14.578Z,7.23
2022-11-04T21:28:41.290Z,9.57
2022-11-04T21:31:11.252Z,10.17
2022-11-04T21:33:38.457Z,10.93
2022-11-04T21:36:11.577Z,11.27
2022-11-04T21:38:39.010Z,9.97
2022-11-04T21:41:11.516Z,10.37
2022-11-04T21:43:38.141Z,10.77
2022-11-04T21:46:07.437Z,7.60
2022-11-04T21:48:35.416Z,6.00
2022-11-04T21:51:08.315Z,7.57
2022-11-04T21:53:35.042Z,8.40
2022-11-04T21:56:10.290Z,6.00
2022-11-04T21:58:37.788Z,8.67
2022-11-04T22:01:08.899Z,14.17
2022-11-04T22:03:35.712Z,28.03
2022-11-04T22:06:09.191Z,23.57
2022-11-04T22:08:36.987Z,18.20
2022-11-04T22:11:15.237Z,16.87
2022-11-04T22:13:41.901Z,11.47
2022-11-04T22:16:18.510Z,11.97
2022-11-04T22:18:46.098Z,11.13
2022-11-04T22:21:17.592Z,13.03
2022-11-04T22:23:44.834Z,11.87
2022-11-04T22:26:18.008Z,11.37
2022-11-04T22:28:44.965Z,12.80
2022-11-04T22:31:15.739Z,10.80
2022-11-04T22:33:42.730Z,7.73
2022-11-04T22:36:10.618Z,15.07
2022-11-04T22:38:38.677Z,23.20
2022-11-04T22:41:07.325Z,36.50
2022-11-04T22:43:34.328Z,29.33
2022-11-04T22:46:11.640Z,16.33
2022-11-04T22:48:38.343Z,10.20
2022-11-04T22:51:06.680Z,8.67
2022-11-04T22:53:33.339Z,8.67
2022-11-04T22:56:01.723Z,13.00
2022-11-04T22:58:29.756Z,12.27
2022-11-04T23:01:09.140Z,10.53
2022-11-04T23:03:36.090Z,10.93
2022-11-04T23:06:04.382Z,11.07
2022-11-04T23:08:32.492Z,12.57
2022-11-04T23:11:20.590Z,12.97
2022-11-04T23:14:19.845Z,11.90
2022-11-04T23:17:08.642Z,14.43
2022-11-04T23:19:38.887Z,12.13
2022-11-04T23:22:25.085Z,8.83
2022-11-04T23:25:07.133Z,10.57
2022-11-04T23:28:01.983Z,11.53
2022-11-04T23:30:32.413Z,12.07
2022-11-04T23:33:00.192Z,11.17
2022-11-04T23:36:09.728Z,12.57
2022-11-04T23:38:36.364Z,12.63
2022-11-04T23:41:25.329Z,8.33
2022-11-04T23:43:52.495Z,9.97
2022-11-04T23:46:42.567Z,6.00
2022-11-04T23:49:32.377Z,8.07
2022-11-04T23:52:17.683Z,7.50
2022-11-04T23:55:03.022Z,10.07
2022-11-04T23:57:48.488Z,8.30
